PARDEE (PAR)

Elevation: 568' · MOKELUMNE R basin · Operator: East Bay Municipal Utility District

Provisional data, subject to change.
Query executed Sunday at 10:53:32   clock

Select a sensor type for a plot of data.
Note: Reservoir Flows are daily averages.

Earlier

Date RES ELE    STORAGE    RES CHG    OUTFLOW    INFLOW    PPT INC   
 FEET   AF   AF   CFS   CFS   INCHES  
02/02/2015 552.20 165462 -12 206 206 0.00
02/03/2015 552.20 165462 0 196 198 0.00
02/04/2015 552.27 165597 135 180 208 0.00
02/05/2015 552.28 165625 28 194 247 0.00
02/06/2015 552.38 165824 199 199 202 0.00
02/07/2015 552.67 166397 573 188 298 0.75
02/08/2015 553.80 168642 2245 185 521 1.66
02/09/2015 556.66 174445 5803 165 1701 0.11
02/10/2015 557.38 175932 1487 174 1607 0.00
02/11/2015 557.89 176984 1052 158 630 0.00
02/12/2015 558.32 177881 897 141 515 0.00
02/13/2015 558.68 178639 758 153 484 0.00
02/14/2015 558.90 179100 461 171 401 0.00
02/15/2015 559.12 179559 459 184 335 0.00
02/16/2015 559.28 179889 330 189 382 0.00
02/17/2015 558.93 179163 -726 724 508 0.00
02/18/2015 558.64 178547 -616 709 199 0.00
02/19/2015 558.28 177802 -745 712 223 0.00
02/20/2015 558.08 177395 -407 704 199 0.01
02/21/2015 558.06 177349 -46 694 314 0.01
02/22/2015 557.85 176910 -439 138 -130 0.00
02/23/2015 558.03 177282 372 138 256 0.00
02/24/2015 558.17 177569 287 138 278 0.00
02/25/2015 558.29 177819 250 138 256 0.00
02/26/2015 558.33 177911 92 138 230 0.00
02/27/2015 558.45 178152 241 134 165 --
02/28/2015 558.60 178472 320 131 228 --
03/01/2015 -- -- -- -- -- --

Later | Latest

Warning! This data is preliminary and subject to revision.

Show PAR Map | Plot PAR Data | 1 Month PAR Data | Real-Time PAR Data | PAR Info